createdAt,value
2019-05-03T00:01:59.067Z,14.83
2019-05-03T00:07:04.299Z,14.78
2019-05-03T00:12:09.114Z,15.03
2019-05-03T00:17:14.287Z,15.00
2019-05-03T00:22:18.992Z,14.73
2019-05-03T00:27:23.632Z,15.60
2019-05-03T00:32:29.753Z,14.73
2019-05-03T00:37:36.075Z,15.25
2019-05-03T00:42:42.384Z,15.18
2019-05-03T00:47:47.160Z,13.75
2019-05-03T00:52:52.116Z,14.90
2019-05-03T00:57:56.822Z,14.55
2019-05-03T01:03:02.151Z,14.68
2019-05-03T01:08:07.955Z,14.58
2019-05-03T01:13:12.615Z,14.70
2019-05-03T01:18:18.824Z,13.88
2019-05-03T01:23:23.444Z,14.35
2019-05-03T01:28:27.997Z,13.13
2019-05-03T01:33:32.565Z,16.17
2019-05-03T01:38:37.074Z,18.45
2019-05-03T01:43:41.930Z,13.70
2019-05-03T01:49:01.590Z,15.32
2019-05-03T01:54:06.314Z,15.43
2019-05-03T01:59:12.317Z,16.30
2019-05-03T02:04:21.650Z,16.93
2019-05-03T02:09:26.098Z,17.75
2019-05-03T02:14:31.737Z,16.82
2019-05-03T02:19:36.445Z,15.20
2019-05-03T02:24:42.212Z,16.37
2019-05-03T02:29:46.859Z,15.50
2019-05-03T02:34:53.516Z,15.60
2019-05-03T02:40:03.909Z,16.12
2019-05-03T02:45:11.662Z,16.40
2019-05-03T02:50:17.379Z,14.95
2019-05-03T02:55:22.054Z,14.73
2019-05-03T03:00:47.624Z,14.80
2019-05-03T03:05:55.934Z,16.32
2019-05-03T03:11:06.608Z,15.58
2019-05-03T03:16:11.384Z,15.20
2019-05-03T03:21:17.718Z,15.75
2019-05-03T03:26:36.766Z,16.07
2019-05-03T03:31:49.705Z,15.80
2019-05-03T03:37:04.515Z,16.05
2019-05-03T03:42:02.137Z,16.37
2019-05-03T03:47:07.638Z,15.55
2019-05-03T03:52:16.017Z,15.58
2019-05-03T03:57:21.047Z,14.35
2019-05-03T04:02:26.492Z,14.50
2019-05-03T04:07:32.079Z,15.25
2019-05-03T04:12:36.924Z,13.98
2019-05-03T04:17:46.658Z,14.95
2019-05-03T04:22:52.321Z,17.48
2019-05-03T04:27:57.959Z,16.45
2019-05-03T04:33:05.686Z,14.75
2019-05-03T04:38:08.946Z,15.03
2019-05-03T04:43:16.280Z,13.13
2019-05-03T04:48:19.810Z,12.82
2019-05-03T04:53:25.993Z,13.80
2019-05-03T04:58:30.684Z,14.75
2019-05-03T05:03:36.224Z,16.62
2019-05-03T05:08:41.958Z,15.53
2019-05-03T05:13:46.588Z,13.80
2019-05-03T05:18:52.872Z,13.53
2019-05-03T05:23:59.373Z,13.35
2019-05-03T05:29:06.657Z,13.10
2019-05-03T05:34:11.228Z,11.63
2019-05-03T05:39:18.710Z,10.75
2019-05-03T05:44:24.769Z,12.63
2019-05-03T05:49:39.932Z,12.98
2019-05-03T05:54:46.183Z,13.78
2019-05-03T05:59:54.439Z,12.95
2019-05-03T06:04:58.797Z,13.88
2019-05-03T06:10:16.679Z,13.72
2019-05-03T06:15:38.147Z,13.83
2019-05-03T06:20:45.166Z,13.98
2019-05-03T06:25:49.977Z,15.00
2019-05-03T06:30:56.229Z,15.23
2019-05-03T06:36:00.867Z,16.35
2019-05-03T06:41:05.576Z,14.40
2019-05-03T06:46:10.207Z,16.52
2019-05-03T06:51:19.908Z,16.17
2019-05-03T06:56:25.046Z,15.85
2019-05-03T07:01:31.622Z,14.38
2019-05-03T07:06:40.638Z,15.23
2019-05-03T07:11:45.150Z,13.43
2019-05-03T07:16:49.714Z,13.38
2019-05-03T07:21:54.680Z,13.48
2019-05-03T07:26:59.500Z,12.82
2019-05-03T07:32:05.180Z,14.83
2019-05-03T07:37:10.008Z,15.98
2019-05-03T07:42:15.656Z,15.20
2019-05-03T07:47:21.379Z,15.30
2019-05-03T07:52:26.040Z,13.88
2019-05-03T07:57:32.153Z,13.08
2019-05-03T08:02:36.946Z,14.43
2019-05-03T08:07:43.923Z,15.15
2019-05-03T08:12:47.720Z,16.80
2019-05-03T08:17:52.234Z,14.98
2019-05-03T08:22:56.800Z,14.43
2019-05-03T08:28:01.441Z,14.25
2019-05-03T08:33:07.812Z,13.80
2019-05-03T08:38:12.428Z,13.32
2019-05-03T08:43:17.144Z,13.85
2019-05-03T08:48:21.955Z,11.57
2019-05-03T08:53:26.633Z,11.65
2019-05-03T08:58:31.230Z,11.10
2019-05-03T09:03:38.308Z,9.65
2019-05-03T09:08:42.205Z,8.88
2019-05-03T09:13:49.078Z,5.17
2019-05-03T09:18:54.912Z,9.68
2019-05-03T09:23:59.717Z,5.00
2019-05-03T09:29:05.529Z,5.03
2019-05-03T09:34:10.291Z,4.65
2019-05-03T09:39:14.989Z,4.80
2019-05-03T09:44:19.603Z,5.90
2019-05-03T09:49:25.352Z,5.25
2019-05-03T09:54:34.736Z,5.22
2019-05-03T09:59:39.444Z,5.37
2019-05-03T10:04:44.609Z,4.40
2019-05-03T10:09:49.315Z,4.37
2019-05-03T10:14:55.448Z,4.83
2019-05-03T10:20:00.018Z,3.87
2019-05-03T10:25:07.882Z,3.80
2019-05-03T10:30:17.020Z,3.45
2019-05-03T10:35:20.215Z,3.50
2019-05-03T10:40:28.269Z,3.47
2019-05-03T10:45:32.924Z,3.25
2019-05-03T10:50:38.607Z,4.65
2019-05-03T10:55:45.184Z,2.98
2019-05-03T11:00:53.323Z,3.10
2019-05-03T11:05:57.689Z,3.50
2019-05-03T11:11:02.269Z,3.10
2019-05-03T11:16:07.368Z,3.27
2019-05-03T11:21:12.102Z,2.92
2019-05-03T11:26:16.670Z,3.55
2019-05-03T11:31:38.674Z,3.02
2019-05-03T11:36:45.475Z,3.17
2019-05-03T11:41:51.688Z,3.50
2019-05-03T11:46:56.335Z,3.20
2019-05-03T11:52:00.996Z,3.35
2019-05-03T11:57:11.631Z,3.47
2019-05-03T12:02:20.840Z,3.27
2019-05-03T12:07:39.428Z,3.70
2019-05-03T12:12:44.035Z,3.67
2019-05-03T12:17:59.072Z,4.28
2019-05-03T12:23:11.437Z,3.75
2019-05-03T12:28:16.517Z,3.58
2019-05-03T12:33:22.843Z,3.70
2019-05-03T12:38:27.459Z,3.27
2019-05-03T12:43:32.078Z,3.35
2019-05-03T12:48:36.810Z,3.75
2019-05-03T12:53:41.460Z,3.85
2019-05-03T12:58:50.743Z,4.47
2019-05-03T13:04:00.125Z,2.85
2019-05-03T13:09:07.414Z,3.40
2019-05-03T13:14:12.322Z,3.65
2019-05-03T13:19:17.000Z,3.00
2019-05-03T13:24:23.413Z,2.87
2019-05-03T13:29:27.814Z,3.30
2019-05-03T13:34:32.519Z,3.72
2019-05-03T13:39:37.135Z,3.60
2019-05-03T13:44:41.732Z,4.80
2019-05-03T13:49:46.353Z,3.22
2019-05-03T13:54:50.945Z,3.25
2019-05-03T13:59:55.563Z,3.58
2019-05-03T14:05:00.209Z,3.10
2019-05-03T14:10:09.257Z,3.20
2019-05-03T14:15:14.924Z,2.92
2019-05-03T14:20:27.266Z,3.20
2019-05-03T14:25:31.927Z,3.87
2019-05-03T14:30:36.546Z,2.58
2019-05-03T14:35:41.098Z,3.33
2019-05-03T14:40:47.346Z,3.15
2019-05-03T14:45:52.090Z,3.67
2019-05-03T14:50:57.505Z,2.87
2019-05-03T14:56:07.845Z,3.08
2019-05-03T15:01:15.470Z,3.20
2019-05-03T15:06:20.101Z,3.27
2019-05-03T15:11:24.649Z,3.92
2019-05-03T15:16:29.271Z,3.05
2019-05-03T15:21:34.652Z,3.20
2019-05-03T15:26:39.333Z,3.08
2019-05-03T15:31:44.752Z,4.15
2019-05-03T15:36:49.461Z,4.53
2019-05-03T15:41:54.455Z,4.08
2019-05-03T15:47:09.609Z,3.67
2019-05-03T15:52:15.517Z,3.83
2019-05-03T15:57:19.998Z,4.10
2019-05-03T16:02:24.787Z,4.08
2019-05-03T16:07:29.323Z,4.55
2019-05-03T16:12:34.425Z,4.30
2019-05-03T16:17:39.283Z,4.30
2019-05-03T16:22:46.668Z,4.60
2019-05-03T16:27:55.645Z,4.37
2019-05-03T16:33:00.334Z,5.00
2019-05-03T16:38:06.148Z,4.90
2019-05-03T16:43:10.756Z,4.80
2019-05-03T16:48:18.299Z,4.20
2019-05-03T16:53:21.968Z,5.15
2019-05-03T16:58:26.625Z,5.58
2019-05-03T17:03:39.227Z,6.78
2019-05-03T17:08:46.326Z,7.45
2019-05-03T17:13:50.895Z,8.50
2019-05-03T17:18:55.572Z,8.35
2019-05-03T17:24:00.239Z,6.10
2019-05-03T17:29:05.007Z,6.25
2019-05-03T17:34:09.455Z,6.72
2019-05-03T17:39:18.575Z,6.20
2019-05-03T17:44:24.902Z,5.70
2019-05-03T17:49:29.479Z,5.90
2019-05-03T17:54:35.817Z,6.20
2019-05-03T17:59:45.866Z,6.20
2019-05-03T18:04:52.130Z,5.47
2019-05-03T18:09:58.717Z,5.33
2019-05-03T18:15:05.612Z,5.60
2019-05-03T18:20:10.277Z,6.83
2019-05-03T18:25:15.011Z,5.40
2019-05-03T18:30:21.014Z,6.12
2019-05-03T18:35:25.802Z,5.08
2019-05-03T18:40:31.986Z,7.45
2019-05-03T18:45:50.330Z,5.58
2019-05-03T18:50:55.036Z,4.53
2019-05-03T18:55:59.681Z,5.30
2019-05-03T19:01:05.349Z,8.75
2019-05-03T19:06:11.662Z,5.97
2019-05-03T19:11:26.974Z,5.17
2019-05-03T19:16:42.793Z,5.10
2019-05-03T19:21:47.484Z,5.17
2019-05-03T19:26:54.289Z,5.85
2019-05-03T19:32:00.333Z,6.12
2019-05-03T19:37:05.355Z,5.80
2019-05-03T19:42:11.142Z,6.30
2019-05-03T19:47:15.830Z,5.50
2019-05-03T19:52:22.098Z,5.67
2019-05-03T19:57:34.916Z,4.45
2019-05-03T20:02:45.375Z,4.50
2019-05-03T20:08:00.876Z,5.33
2019-05-03T20:13:05.578Z,5.03
2019-05-03T20:18:10.402Z,5.42
2019-05-03T20:23:15.938Z,4.70
2019-05-03T20:28:20.811Z,5.17
2019-05-03T20:33:25.630Z,5.15
2019-05-03T20:38:30.154Z,4.78
2019-05-03T20:43:59.041Z,4.67
2019-05-03T20:49:08.732Z,4.40
2019-05-03T20:54:15.260Z,4.90
2019-05-03T20:59:19.892Z,5.10
2019-05-03T21:04:24.883Z,4.60
2019-05-03T21:09:29.563Z,4.72
2019-05-03T21:14:35.056Z,5.42
2019-05-03T21:19:41.418Z,5.47
2019-05-03T21:24:47.624Z,5.62
2019-05-03T21:29:54.879Z,5.78
2019-05-03T21:34:59.185Z,5.72
2019-05-03T21:40:05.593Z,6.30
2019-05-03T21:45:12.307Z,5.72
2019-05-03T21:50:18.416Z,6.35
2019-05-03T21:55:24.769Z,6.00
2019-05-03T22:00:31.296Z,6.00
2019-05-03T22:05:37.443Z,5.83
2019-05-03T22:10:42.099Z,5.85
2019-05-03T22:15:48.384Z,6.08
2019-05-03T22:20:57.638Z,5.25
2019-05-03T22:26:05.028Z,5.83
2019-05-03T22:31:08.978Z,5.12
2019-05-03T22:36:14.511Z,5.25
2019-05-03T22:41:19.070Z,5.22
2019-05-03T22:46:24.934Z,5.58
2019-05-03T22:51:29.647Z,5.78
2019-05-03T22:56:35.601Z,4.90
2019-05-03T23:01:41.331Z,5.08
2019-05-03T23:06:47.103Z,4.78
2019-05-03T23:11:51.820Z,4.85
2019-05-03T23:16:56.388Z,5.40
2019-05-03T23:22:04.666Z,4.80
2019-05-03T23:27:08.918Z,5.00
2019-05-03T23:32:15.160Z,5.65
2019-05-03T23:37:19.965Z,5.50
2019-05-03T23:42:24.605Z,5.42
2019-05-03T23:47:30.786Z,4.62
2019-05-03T23:52:35.620Z,4.78
2019-05-03T23:57:40.201Z,5.03
